My Meet Scores
Dina Chan, St. Charles Gymnastics Academy - MyMeetScores.com
Top100 | Top Teams | Upcoming Meets | Completed Meets | Latest | Add Scores | Help| Support | Bookmark and Share

Dina Chan, St. Charles Gymnastics Academy
Personal Bests
LevelVault BarsBeamFloorAA
38.8258.300 9.2508.70035.075
48.4759.250 9.6759.10036.000
68.6009.175 9.5509.57536.450
Meet Scores
Date Meet Team Session Level Division Vault Bars Beam Floor AA
2020-02-28 MEGA Spring Invite 2020 St. Charles Gymnastics Academy 2 6 Senior 8.425 13 8.300 16 9.550 6 9.225 7T 35.500 11
2020-02-07 SCGA Classic St. Charles Gymnastics Academy 2 6 Jr B 8.175 5 9.100 2 9.275 3 9.275 4 35.825 3
2020-01-10 St Jude Benefit Meet St. Charles Gymnastics Academy 1B 6 Sr A 7.950 17 9.175 3T 9.300 2 9.300 7T 35.725 5
2019-12-13 2019 St Nick St. Charles Gymnastics Academy 4 6 JrB 8.500 9 8.875 5 9.500 1 9.575 3 36.450 4
2019-03-15 Illinois State Championship Level 6,9,10 St. Charles Gymnastics Academy 12 6 Jr E 8.600 18 9.100 11 8.875 14 9.100 19 35.675 17
2019-01-11 St Jude Benefit Meet St. Charles Gymnastics Academy 2B 6 Jr A 7.450 14 8.425 11 9.250 5 9.250 12T 34.375 12
2018-12-07 St. Nick Invite 2018 St. Charles Gymnastics Academy 2 6 JrA 8.050 10 8.925 6T 8.675 8T 9.175 8 34.825 9
2018-03-08 Level 4 & 5 State St. Charles Gymnastics Academy All 4 Yh F 8.475 20 8.750 11 9.675 1 9.100 8 36.000 9
2018-02-23 Kinetic Classic St. Charles Gymnastics Academy 7 4 Middle 7.750 78T 8.950 35T 9.325 19T 8.350 80T 34.375 55
2018-02-16 Big Classic St. Charles Gymnastics Academy 7B 4 Child C 8.000 13T 9.250 7 9.550 3 9.025 8T 35.825 8
2018-01-26 King Arthur Invitational St. Charles Gymnastics Academy 6 4 SR A 8.175 20 8.300 18 9.350 5T 8.800 12 34.625 12
2018-01-12 St Jude Benefit Meet St. Charles Gymnastics Academy 2A 4 SrA 7.950 18 8.750 13 9.450 3 8.775 12 34.925 12
2017-12-14 2017 Women's Hawaiian Pineapple Classic St. Charles Gymnastics Academy 6A 4 Age10 7.675 16 7.950 15 8.800 2 8.500 8 32.925 9
2017-11-17 SCGA Classic St. Charles Gymnastics Academy 2 4 JrB 8.050 12 8.225 10 9.150 5 9.000 7 34.425 7
2017-02-24 Kinetic Classic St. Charles Gymnastics Academy 5,6 4 All Ages 7.700 122T 6.650 129 8.775 94T 8.150 114 31.275 123
2017-02-10 IGI Chicago Style Gymnastics Meet St. Charles Gymnastics Academy 621L 4 JrA 7.450 20 7.300 20 9.175 7 7.550 19 31.475 16
2017-01-20 2017 Bravo Classic St. Charles Gymnastics Academy 06B 4 9yrs 7.250 19 7.250 18 8.875 13 8.150 16 31.525 17
2017-01-13 St Jude Benefit Meet St. Charles Gymnastics Academy 3A 4 Jr B 7.650 14T 0.000 16T 8.450 13 8.125 13T 24.225 16
2016-12-15 2016 Hawaiian Pineapple Sanction St. Charles Gymnastics Academy 9A 4 Age 9 7.850 24 7.200 20 9.025 14T 7.850 24 31.925 20
2016-12-02 Ultimate Wish Classic St. Charles Gymnastics Academy 13 4 Jr A 7.850 18T 0.000 18T 8.475 15 8.425 16 24.750 20
2016-01-22 King Arthur Invitational St. Charles Gymnastics Academy S7 3 Jr.B 8.825 14 8.300 13 9.250 4 8.700 11 35.075 10
Get your scores on
a t-shirt, pin, or hoodie

www.lazysuits.com